Time;durP1;ratioP1;P1;durP2;ratioP2;P2;SDS_P1;SDS_P2;PMS_P1;PMS_P2;Temp;Humidity;BMP_temperature;BMP_pressure;BME280_temperature;BME280_humidity;BME280_pressure;Samples;Min_cycle;Max_cycle;Signal;HPM_P1;HPM_P2
2021/09/02 01:34:17;;;;;;;9.57;8.67;;;12.00;99.90;;;;;;4979555;23;20498;-86
2021/09/02 01:36:44;;;;;;;8.43;7.73;;;12.00;99.90;;;;;;4956515;29;20460;-86
2021/09/02 01:39:18;;;;;;;7.53;6.83;;;12.00;99.90;;;;;;4956642;29;20810;-86
2021/09/02 01:41:44;;;;;;;8.00;7.30;;;12.00;99.90;;;;;;4956114;29;20464;-86
2021/09/02 01:44:11;;;;;;;7.60;6.93;;;12.00;99.90;;;;;;4956494;29;20480;-85
2021/09/02 01:46:38;;;;;;;7.80;7.10;;;11.90;99.90;;;;;;4956571;29;20463;-86
2021/09/02 01:49:05;;;;;;;8.37;7.67;;;11.90;99.90;;;;;;4956559;29;20455;-85
2021/09/02 01:51:36;;;;;;;8.63;7.77;;;11.90;99.90;;;;;;4955854;29;20463;-86
2021/09/02 01:54:03;;;;;;;8.47;7.20;;;11.90;99.90;;;;;;4956425;29;20483;-86
2021/09/02 01:56:30;;;;;;;10.00;9.17;;;11.90;99.90;;;;;;4956036;28;20499;-86
2021/09/02 01:58:57;;;;;;;8.97;8.00;;;11.90;99.90;;;;;;4956380;29;20464;-86
2021/09/02 02:01:23;;;;;;;8.90;7.63;;;11.90;99.90;;;;;;4955693;29;20500;-86
2021/09/02 02:03:50;;;;;;;9.13;7.30;;;11.80;99.90;;;;;;4956181;28;20480;-86
2021/09/02 02:06:17;;;;;;;8.90;7.90;;;11.80;99.90;;;;;;4956024;29;20459;-86
2021/09/02 02:08:45;;;;;;;8.63;7.80;;;11.80;99.90;;;;;;4956189;28;20499;-85
2021/09/02 02:11:12;;;;;;;8.80;7.90;;;11.80;99.90;;;;;;4956107;28;20448;-86
2021/09/02 02:13:38;;;;;;;9.30;8.40;;;11.80;99.90;;;;;;4955266;28;20475;-86
2021/09/02 02:16:05;;;;;;;6.90;6.23;;;11.80;99.90;;;;;;4955962;29;20484;-86
2021/09/02 02:18:32;;;;;;;9.43;8.53;;;11.70;99.90;;;;;;4955892;28;20455;-86
2021/09/02 02:20:59;;;;;;;9.13;8.10;;;11.70;99.90;;;;;;4955724;29;20471;-86
2021/09/02 02:23:25;;;;;;;8.63;7.80;;;11.70;99.90;;;;;;4954143;29;20464;-86
2021/09/02 02:25:53;;;;;;;8.90;8.13;;;11.70;99.90;;;;;;4955002;29;20460;-86
2021/09/02 02:28:20;;;;;;;8.43;7.63;;;11.70;99.90;;;;;;4955732;29;20495;-86
2021/09/02 02:30:47;;;;;;;9.50;7.53;;;11.60;99.90;;;;;;4956003;29;21002;-86
2021/09/02 02:33:14;;;;;;;8.70;7.97;;;11.60;99.90;;;;;;4954836;28;20488;-85
2021/09/02 02:35:40;;;;;;;10.80;9.67;;;11.60;99.90;;;;;;4955967;28;20467;-86
2021/09/02 02:38:07;;;;;;;9.60;8.60;;;11.50;99.90;;;;;;4955844;29;21100;-87
2021/09/02 02:40:34;;;;;;;9.23;8.43;;;11.50;99.90;;;;;;4955790;29;20463;-86
2021/09/02 02:43:03;;;;;;;8.67;7.80;;;11.50;99.90;;;;;;4955777;28;20483;-86
2021/09/02 02:45:29;;;;;;;8.07;7.33;;;11.50;99.90;;;;;;4956200;29;20503;-85
2021/09/02 02:47:56;;;;;;;8.17;7.47;;;11.50;99.90;;;;;;4955393;29;20852;-86
2021/09/02 02:50:23;;;;;;;13.10;9.30;;;11.50;99.90;;;;;;4955670;29;20467;-86
2021/09/02 02:52:55;;;;;;;8.90;8.10;;;11.50;99.90;;;;;;4955045;29;20479;-86
2021/09/02 02:55:22;;;;;;;9.93;8.03;;;11.50;99.90;;;;;;4955428;29;20463;-86
2021/09/02 02:57:49;;;;;;;8.07;7.37;;;11.50;99.90;;;;;;4955359;29;20451;-86
2021/09/02 03:00:18;;;;;;;9.43;8.27;;;11.40;99.90;;;;;;4955154;29;20948;-85
2021/09/02 03:02:45;;;;;;;8.73;7.93;;;11.40;99.90;;;;;;4954540;28;20488;-87
2021/09/02 03:05:12;;;;;;;10.97;8.27;;;11.40;99.90;;;;;;4955088;28;20463;-86
2021/09/02 03:07:39;;;;;;;9.17;8.27;;;11.30;99.90;;;;;;4954803;28;21017;-86
2021/09/02 03:10:08;;;;;;;8.63;7.93;;;11.30;99.90;;;;;;4955056;29;20462;-86
2021/09/02 03:12:36;;;;;;;10.50;8.57;;;11.30;99.90;;;;;;4954509;29;20479;-86
2021/09/02 03:15:03;;;;;;;8.40;7.60;;;11.30;99.90;;;;;;4954832;29;20457;-86
2021/09/02 03:17:32;;;;;;;8.73;7.93;;;11.30;99.90;;;;;;4955115;29;20470;-85
2021/09/02 03:19:58;;;;;;;9.20;8.27;;;11.30;99.90;;;;;;4954729;29;20955;-85
2021/09/02 03:22:25;;;;;;;8.00;7.20;;;11.30;99.90;;;;;;4953994;28;20843;-85
2021/09/02 03:24:52;;;;;;;7.87;7.07;;;11.30;99.90;;;;;;4954767;28;20473;-85
2021/09/02 03:27:18;;;;;;;7.57;6.87;;;11.30;99.90;;;;;;4954528;29;20492;-85
2021/09/02 03:29:45;;;;;;;8.70;8.00;;;11.30;99.90;;;;;;4954582;29;20462;-86
2021/09/02 03:32:12;;;;;;;8.67;7.87;;;11.30;99.90;;;;;;4954602;29;20480;-86
2021/09/02 03:34:40;;;;;;;7.87;7.10;;;11.30;99.90;;;;;;4954569;29;20463;-86
2021/09/02 03:37:07;;;;;;;8.67;7.87;;;11.20;99.90;;;;;;4954873;29;20835;-85
2021/09/02 03:39:33;;;;;;;8.53;7.83;;;11.20;99.90;;;;;;4954583;29;20470;-85
2021/09/02 03:42:00;;;;;;;7.10;6.50;;;11.20;99.90;;;;;;4953826;28;20466;-86
2021/09/02 03:44:27;;;;;;;8.47;7.60;;;11.20;99.90;;;;;;4954650;29;20481;-85
2021/09/02 03:46:54;;;;;;;8.13;7.40;;;11.20;99.90;;;;;;4954570;29;20452;-84
2021/09/02 03:49:21;;;;;;;7.80;7.03;;;11.10;99.90;;;;;;4954526;29;20492;-83
2021/09/02 03:51:49;;;;;;;8.07;7.30;;;11.10;99.90;;;;;;4953924;29;20467;-84
2021/09/02 03:54:15;;;;;;;8.60;7.70;;;11.10;99.90;;;;;;4968940;29;20447;-82
2021/09/02 03:56:42;;;;;;;8.23;7.50;;;11.10;99.90;;;;;;4977742;28;20521;-84
2021/09/02 03:59:09;;;;;;;8.53;7.83;;;11.10;99.90;;;;;;4977588;29;20438;-83
2021/09/02 04:01:35;;;;;;;8.10;7.40;;;11.10;99.90;;;;;;4974878;29;20442;-83
2021/09/02 04:04:02;;;;;;;9.27;8.37;;;11.00;99.90;;;;;;4966184;28;20470;-84
2021/09/02 04:06:29;;;;;;;8.37;7.77;;;11.00;99.90;;;;;;4955677;28;20453;-84
2021/09/02 04:08:57;;;;;;;8.73;7.93;;;11.00;99.90;;;;;;4954147;29;20493;-84
2021/09/02 04:11:24;;;;;;;10.43;9.37;;;11.00;99.90;;;;;;4953762;29;20455;-84
2021/09/02 04:13:51;;;;;;;9.67;8.43;;;11.00;99.90;;;;;;4954103;29;20480;-85
2021/09/02 04:16:17;;;;;;;9.50;8.53;;;11.00;99.90;;;;;;4954109;28;20981;-84
2021/09/02 04:18:46;;;;;;;9.50;8.60;;;10.90;99.90;;;;;;4953852;29;20451;-84
2021/09/02 04:21:13;;;;;;;9.13;8.33;;;10.90;99.90;;;;;;4954430;28;20461;-84
2021/09/02 04:23:39;;;;;;;9.13;8.13;;;10.90;99.90;;;;;;4953275;29;20486;-84
2021/09/02 04:26:08;;;;;;;8.27;7.47;;;10.90;99.90;;;;;;4954141;28;20456;-84
2021/09/02 04:28:34;;;;;;;7.97;7.17;;;10.90;99.90;;;;;;4953995;29;20496;-84
2021/09/02 04:31:01;;;;;;;8.33;7.63;;;10.90;99.90;;;;;;4954985;29;21000;-84
2021/09/02 04:33:28;;;;;;;8.03;7.27;;;10.90;99.90;;;;;;4953315;29;20491;-84
2021/09/02 04:35:55;;;;;;;8.37;7.67;;;10.80;99.90;;;;;;4953794;29;20458;-84
2021/09/02 04:38:23;;;;;;;9.80;8.90;;;10.90;99.90;;;;;;4953740;29;20950;-84
2021/09/02 04:40:50;;;;;;;8.17;7.43;;;10.80;99.90;;;;;;4953814;28;20439;-83
2021/09/02 04:43:19;;;;;;;10.90;8.87;;;10.80;99.90;;;;;;4953425;29;20488;-86
2021/09/02 04:45:46;;;;;;;8.93;8.03;;;10.80;99.90;;;;;;4953944;29;20830;-84
2021/09/02 04:48:14;;;;;;;10.70;8.30;;;10.80;99.90;;;;;;4953680;29;20491;-85
2021/09/02 04:50:42;;;;;;;9.97;9.07;;;10.90;99.90;;;;;;4953552;28;20522;-84
2021/09/02 04:53:09;;;;;;;10.40;9.37;;;10.80;99.90;;;;;;4954199;28;20475;-86
2021/09/02 04:55:36;;;;;;;11.67;10.77;;;10.70;99.90;;;;;;4954796;29;20973;-84
2021/09/02 04:58:04;;;;;;;9.97;8.63;;;10.70;99.90;;;;;;4954627;28;20451;-85
2021/09/02 05:00:32;;;;;;;9.93;8.70;;;10.70;99.90;;;;;;4954043;29;20509;-85
2021/09/02 05:02:59;;;;;;;10.67;9.63;;;10.80;99.90;;;;;;4953271;29;20844;-85
2021/09/02 05:05:26;;;;;;;11.03;9.20;;;10.70;99.90;;;;;;4953943;29;20964;-85
2021/09/02 05:07:53;;;;;;;10.70;9.67;;;10.80;99.90;;;;;;4956165;29;20518;-85
2021/09/02 05:10:20;;;;;;;11.43;10.33;;;10.70;99.90;;;;;;4953732;28;20469;-86
2021/09/02 05:12:46;;;;;;;10.07;9.17;;;10.80;99.90;;;;;;4952876;29;20469;-86
2021/09/02 05:15:13;;;;;;;9.40;8.50;;;10.80;99.90;;;;;;4953853;29;20473;-87
2021/09/02 05:17:41;;;;;;;10.57;9.67;;;10.90;99.90;;;;;;4953420;28;20533;-86
2021/09/02 05:20:09;;;;;;;10.37;8.63;;;10.80;99.90;;;;;;4953659;29;20996;-86
2021/09/02 05:22:35;;;;;;;11.80;9.07;;;10.90;99.90;;;;;;4953065;29;20463;-86
2021/09/02 05:25:02;;;;;;;13.53;10.60;;;10.90;99.90;;;;;;4954379;29;20459;-86
2021/09/02 05:27:29;;;;;;;10.37;9.30;;;10.90;99.90;;;;;;4953510;29;20852;-86
2021/09/02 05:29:56;;;;;;;12.07;9.87;;;11.00;99.90;;;;;;4953595;28;20499;-86
2021/09/02 05:32:22;;;;;;;11.33;10.33;;;11.00;99.90;;;;;;4954967;28;20490;-85
2021/09/02 05:34:50;;;;;;;11.83;10.63;;;11.00;99.90;;;;;;4955662;29;20478;-85
2021/09/02 05:37:17;;;;;;;11.50;10.47;;;11.00;99.90;;;;;;4955519;28;20462;-86
2021/09/02 05:39:44;;;;;;;13.53;12.10;;;11.10;99.90;;;;;;4955695;29;20467;-86
2021/09/02 05:42:11;;;;;;;12.33;10.27;;;11.10;99.90;;;;;;4955392;29;20479;-85
2021/09/02 05:44:38;;;;;;;11.47;10.20;;;11.20;99.90;;;;;;4955967;29;20461;-86
2021/09/02 05:47:05;;;;;;;11.60;10.43;;;11.20;99.90;;;;;;4955230;28;20455;-85
2021/09/02 05:49:32;;;;;;;10.80;9.90;;;11.30;99.90;;;;;;4955469;29;20491;-86
2021/09/02 05:52:00;;;;;;;10.70;9.70;;;11.30;99.90;;;;;;4954955;29;20455;-86
2021/09/02 05:54:27;;;;;;;11.77;10.70;;;11.40;99.90;;;;;;4955474;29;20468;-86
2021/09/02 05:56:54;;;;;;;11.87;10.67;;;11.40;99.90;;;;;;4955262;29;20459;-85
2021/09/02 05:59:21;;;;;;;12.07;10.87;;;11.50;99.90;;;;;;4955544;29;20458;-86
2021/09/02 06:01:48;;;;;;;11.77;10.60;;;11.50;99.90;;;;;;4954520;29;20464;-86
2021/09/02 06:04:14;;;;;;;13.33;11.93;;;11.60;99.90;;;;;;4955116;29;20483;-86
2021/09/02 06:06:41;;;;;;;12.80;11.47;;;11.70;99.90;;;;;;4955064;28;20447;-85
2021/09/02 06:09:09;;;;;;;12.90;11.57;;;11.70;99.90;;;;;;4955118;28;20491;-86
2021/09/02 06:11:37;;;;;;;12.17;11.00;;;11.90;99.90;;;;;;4954489;29;20480;-86
2021/09/02 06:14:04;;;;;;;16.13;14.50;;;12.00;99.90;;;;;;4954752;29;20490;-86
2021/09/02 06:16:30;;;;;;;13.73;12.40;;;12.00;99.90;;;;;;4954890;29;20963;-86
2021/09/02 06:18:57;;;;;;;13.63;12.23;;;12.10;99.90;;;;;;4954860;29;20444;-85
2021/09/02 06:21:24;;;;;;;15.17;13.57;;;12.20;99.90;;;;;;4954350;28;20956;-85
2021/09/02 06:23:51;;;;;;;14.17;12.70;;;12.20;99.90;;;;;;4955869;29;20478;-86
2021/09/02 06:26:19;;;;;;;13.63;12.33;;;12.30;99.90;;;;;;4955725;29;20460;-85
2021/09/02 06:28:46;;;;;;;13.87;12.57;;;12.40;99.90;;;;;;4955729;28;20496;-87
2021/09/02 06:31:13;;;;;;;14.83;13.43;;;12.50;99.90;;;;;;4955917;29;20460;-86
2021/09/02 06:33:40;;;;;;;17.30;15.40;;;12.50;99.90;;;;;;4919676;29;1044006;-86
2021/09/02 06:36:06;;;;;;;16.57;14.73;;;12.60;99.90;;;;;;4956395;29;20215;-87
2021/09/02 06:38:33;;;;;;;15.77;14.17;;;12.70;99.90;;;;;;4956091;28;20467;-86
2021/09/02 06:41:00;;;;;;;15.70;14.13;;;12.80;99.90;;;;;;4956467;29;20560;-86
2021/09/02 06:43:28;;;;;;;18.57;15.60;;;12.90;99.90;;;;;;4955487;28;20484;-86
2021/09/02 06:45:55;;;;;;;14.93;13.33;;;13.00;99.90;;;;;;4956331;29;20460;-85
2021/09/02 06:48:22;;;;;;;15.23;12.97;;;13.10;99.90;;;;;;4955875;29;20492;-86
2021/09/02 06:50:49;;;;;;;19.20;13.57;;;13.20;99.90;;;;;;4955955;29;20460;-86
2021/09/02 06:53:15;;;;;;;15.73;13.43;;;13.30;99.90;;;;;;4956104;28;20484;-87
2021/09/02 06:55:42;;;;;;;17.90;13.03;;;13.40;99.90;;;;;;4955645;29;20833;-85
2021/09/02 06:58:09;;;;;;;14.17;12.90;;;13.40;99.90;;;;;;4955942;29;20460;-86
2021/09/02 07:00:37;;;;;;;15.13;12.87;;;13.50;99.90;;;;;;4954992;28;20817;-85
2021/09/02 07:03:04;;;;;;;15.40;12.23;;;13.60;99.90;;;;;;4942997;28;20470;-86
2021/09/02 07:05:30;;;;;;;14.03;12.53;;;13.60;99.90;;;;;;4945036;29;20442;-85
2021/09/02 07:07:57;;;;;;;12.23;11.00;;;13.70;99.90;;;;;;4946709;28;20464;-85
2021/09/02 07:10:24;;;;;;;11.43;10.20;;;13.80;99.90;;;;;;4947389;29;20488;-85
2021/09/02 07:12:50;;;;;;;11.17;10.03;;;13.90;99.90;;;;;;4944551;29;20525;-85
2021/09/02 07:15:17;;;;;;;12.00;10.77;;;14.00;99.90;;;;;;4945288;29;20445;-85
2021/09/02 07:17:45;;;;;;;12.60;11.00;;;14.10;99.90;;;;;;4944436;29;20464;-87
2021/09/02 07:20:13;;;;;;;10.93;9.93;;;14.20;99.90;;;;;;4944282;28;21053;-85
2021/09/02 07:22:40;;;;;;;12.33;11.23;;;14.30;99.90;;;;;;4944666;29;21007;-83
2021/09/02 07:25:07;;;;;;;12.40;9.93;;;14.40;99.90;;;;;;4949921;28;20449;-82
2021/09/02 07:27:34;;;;;;;11.73;10.67;;;14.50;99.90;;;;;;4954643;29;20446;-84
2021/09/02 07:30:01;;;;;;;12.57;8.83;;;14.60;99.90;;;;;;4961000;29;20492;-83
2021/09/02 07:32:27;;;;;;;11.33;10.13;;;14.80;99.90;;;;;;4961581;29;20860;-83
2021/09/02 07:34:56;;;;;;;9.97;9.07;;;14.90;99.90;;;;;;4959730;29;20464;-83
2021/09/02 07:37:22;;;;;;;10.50;9.50;;;15.00;99.90;;;;;;4960331;29;20456;-84
2021/09/02 07:39:49;;;;;;;11.60;9.63;;;15.10;99.90;;;;;;4959204;29;20948;-86
2021/09/02 07:42:16;;;;;;;11.30;9.10;;;15.10;99.90;;;;;;4957714;29;20978;-83
2021/09/02 07:44:58;;;;;;;10.30;9.13;;;15.20;99.90;;;;;;4958833;29;20457;-83
2021/09/02 07:47:24;;;;;;;9.43;8.53;;;15.30;99.90;;;;;;4960149;29;20513;-84
2021/09/02 07:49:51;;;;;;;9.57;8.40;;;15.50;99.90;;;;;;4959785;29;20492;-84
2021/09/02 07:52:19;;;;;;;8.60;7.83;;;15.50;99.90;;;;;;4959876;29;20476;-84
2021/09/02 07:54:46;;;;;;;10.00;9.10;;;15.70;99.90;;;;;;4959968;28;20821;-82
2021/09/02 07:57:13;;;;;;;9.20;8.33;;;15.80;99.90;;;;;;4960710;29;20457;-83
2021/09/02 07:59:40;;;;;;;10.70;9.10;;;15.90;99.90;;;;;;4960546;29;20449;-83
2021/09/02 08:02:07;;;;;;;9.30;8.40;;;16.00;99.90;;;;;;4959236;29;20453;-83
2021/09/02 08:04:34;;;;;;;10.40;9.30;;;16.20;99.90;;;;;;4959855;29;20458;-83
2021/09/02 08:07:00;;;;;;;9.63;8.70;;;16.20;99.90;;;;;;4959964;28;20483;-82
2021/09/02 08:09:28;;;;;;;8.40;7.70;;;16.30;99.90;;;;;;4959944;29;21229;-82
2021/09/02 08:11:56;;;;;;;8.03;7.30;;;16.40;99.90;;;;;;4959481;28;20460;-83
2021/09/02 08:14:23;;;;;;;11.90;10.70;;;16.40;99.90;;;;;;4959545;28;20457;-82
2021/09/02 08:16:49;;;;;;;7.57;6.97;;;16.50;99.90;;;;;;4959908;29;20462;-83
2021/09/02 08:19:16;;;;;;;8.20;7.50;;;16.60;99.90;;;;;;4959996;29;20465;-83
2021/09/02 08:21:43;;;;;;;8.13;7.33;;;16.70;99.90;;;;;;4959298;29;20460;-83
2021/09/02 08:24:10;;;;;;;8.60;7.63;;;16.80;99.90;;;;;;4959582;29;21014;-83
2021/09/02 08:26:38;;;;;;;7.50;6.90;;;16.90;99.90;;;;;;4959565;29;20469;-83
2021/09/02 08:29:05;;;;;;;9.97;8.13;;;17.00;99.90;;;;;;4959745;29;20851;-83
2021/09/02 08:31:32;;;;;;;9.53;8.63;;;17.10;99.90;;;;;;4958943;29;20461;-82
2021/09/02 08:33:59;;;;;;;8.00;7.30;;;17.20;99.90;;;;;;4960247;28;20481;-83
2021/09/02 08:36:26;;;;;;;7.93;7.33;;;17.30;99.90;;;;;;4960319;28;20458;-83
2021/09/02 08:38:52;;;;;;;8.47;7.73;;;17.30;99.90;;;;;;4959558;29;20445;-83
2021/09/02 08:41:20;;;;;;;6.67;6.17;;;17.40;99.90;;;;;;4959740;29;20450;-82
2021/09/02 08:43:49;;;;;;;7.97;7.27;;;17.50;99.90;;;;;;4959367;29;20477;-83
2021/09/02 08:46:17;;;;;;;8.10;6.80;;;17.60;99.90;;;;;;4959271;28;20458;-82
2021/09/02 08:48:46;;;;;;;9.23;7.83;;;17.70;99.90;;;;;;4959944;28;20464;-83
2021/09/02 08:51:13;;;;;;;8.10;7.40;;;17.80;99.90;;;;;;4959908;29;20473;-83
2021/09/02 08:53:40;;;;;;;7.90;7.13;;;18.00;99.90;;;;;;4959006;29;21002;-83
2021/09/02 08:56:07;;;;;;;7.40;6.60;;;18.00;99.90;;;;;;4960196;29;20462;-83
2021/09/02 08:58:34;;;;;;;8.80;8.03;;;18.10;99.90;;;;;;4959555;29;20468;-83
2021/09/02 09:01:02;;;;;;;8.90;8.00;;;18.20;99.90;;;;;;4959867;29;20463;-83
2021/09/02 09:03:29;;;;;;;8.10;7.40;;;18.10;99.90;;;;;;4958799;29;20482;-83
2021/09/02 09:05:58;;;;;;;8.30;7.17;;;18.20;99.90;;;;;;4960166;28;20462;-83
2021/09/02 09:08:33;;;;;;;8.07;7.30;;;18.40;99.90;;;;;;4963117;29;20950;-83
2021/09/02 09:11:15;;;;;;;8.70;8.00;;;18.50;99.90;;;;;;4962729;29;20498;-82
2021/09/02 09:13:42;;;;;;;9.00;7.43;;;18.60;99.90;;;;;;4966570;29;21083;-85
2021/09/02 09:16:10;;;;;;;8.27;6.77;;;18.80;99.90;;;;;;4962957;28;20478;-84
2021/09/02 09:18:46;;;;;;;6.63;6.07;;;18.90;99.90;;;;;;4961023;28;20825;-83
2021/09/02 09:21:14;;;;;;;7.90;7.20;;;19.00;99.90;;;;;;4962089;29;20459;-83
2021/09/02 09:23:52;;;;;;;9.27;8.37;;;19.10;99.90;;;;;;4961663;28;20505;-81
2021/09/02 09:26:19;;;;;;;8.00;7.17;;;19.20;99.90;;;;;;4960893;28;20464;-80
2021/09/02 09:28:46;;;;;;;9.03;6.70;;;19.30;99.90;;;;;;4954306;28;20460;-80
2021/09/02 09:31:29;;;;;;;7.50;6.80;;;19.40;99.90;;;;;;4940715;29;20956;-82
2021/09/02 09:33:58;;;;;;;7.20;6.50;;;19.50;99.90;;;;;;4940297;29;20476;-80
2021/09/02 09:36:25;;;;;;;7.90;7.10;;;19.60;99.90;;;;;;4939869;29;20468;-82
2021/09/02 09:39:04;;;;;;;8.07;7.27;;;19.80;99.90;;;;;;4940005;29;20476;-83
2021/09/02 09:41:33;;;;;;;7.37;6.77;;;19.90;99.90;;;;;;4939956;29;20464;-83
2021/09/02 09:44:22;;;;;;;7.90;7.27;;;19.90;99.90;;;;;;4941712;29;20488;-82
2021/09/02 09:47:14;;;;;;;8.03;7.33;;;20.00;99.70;;;;;;4939670;29;20460;-82
2021/09/02 09:50:00;;;;;;;7.40;6.80;;;20.10;99.90;;;;;;4937237;29;20517;-82
2021/09/02 09:52:29;;;;;;;7.23;6.63;;;20.20;99.40;;;;;;4938224;28;20842;-82
2021/09/02 09:55:04;;;;;;;7.87;7.20;;;20.30;99.80;;;;;;4946071;28;20444;-80
2021/09/02 09:57:32;;;;;;;7.13;6.43;;;20.40;99.90;;;;;;4956426;28;20488;-85
2021/09/02 10:00:01;;;;;;;8.20;6.63;;;20.50;99.40;;;;;;4957441;28;20968;-81
2021/09/02 10:02:30;;;;;;;7.27;6.67;;;20.70;98.70;;;;;;4956033;28;20477;-82
2021/09/02 10:04:57;;;;;;;6.30;5.70;;;20.90;98.40;;;;;;4957200;28;20515;-82
2021/09/02 10:07:27;;;;;;;7.00;6.50;;;20.90;96.90;;;;;;4949477;28;20474;-82
2021/09/02 10:09:56;;;;;;;7.20;5.97;;;20.90;97.80;;;;;;4947707;28;20493;-82
2021/09/02 10:12:23;;;;;;;6.93;6.33;;;21.10;99.20;;;;;;4957167;28;20880;-82
2021/09/02 10:14:50;;;;;;;7.17;6.53;;;21.20;98.80;;;;;;4956582;28;20469;-83
2021/09/02 10:17:17;;;;;;;6.80;5.80;;;21.40;98.50;;;;;;4955035;28;20832;-83
2021/09/02 10:19:47;;;;;;;7.43;6.13;;;21.40;98.20;;;;;;4955813;28;20821;-83
2021/09/02 10:22:14;;;;;;;7.27;6.67;;;21.60;97.40;;;;;;4948651;28;20990;-82
2021/09/02 10:24:42;;;;;;;5.73;5.23;;;21.80;98.00;;;;;;4948069;28;20482;-83
2021/09/02 10:27:35;;;;;;;6.80;6.13;;;22.00;97.60;;;;;;4956847;28;20453;-83
2021/09/02 10:30:21;;;;;;;6.87;6.27;;;22.20;97.10;;;;;;4954814;28;20494;-81
2021/09/02 10:32:47;;;;;;;6.67;6.10;;;22.30;95.70;;;;;;4948636;28;20501;-81
2021/09/02 10:35:42;;;;;;;6.37;5.73;;;22.40;95.90;;;;;;4938426;28;20466;-82
2021/09/02 10:38:09;;;;;;;7.00;6.40;;;22.60;95.40;;;;;;4913816;29;20463;-83
2021/09/02 10:40:50;;;;;;;7.53;6.70;;;22.60;94.30;;;;;;4953878;28;20446;-82
2021/09/02 10:43:49;;;;;;;5.47;4.97;;;22.70;95.40;;;;;;4937360;28;20483;-82
2021/09/02 10:46:30;;;;;;;6.33;5.83;;;22.80;95.10;;;;;;4951221;28;20898;-83
2021/09/02 10:48:57;;;;;;;6.30;5.80;;;23.00;93.80;;;;;;4954233;28;20482;-82
2021/09/02 10:51:36;;;;;;;6.10;5.50;;;23.10;94.70;;;;;;4950413;28;20498;-81
2021/09/02 10:54:05;;;;;;;6.73;6.13;;;23.30;94.00;;;;;;4944647;28;20486;-81
2021/09/02 10:56:34;;;;;;;5.97;5.43;;;23.60;93.50;;;;;;4955537;28;20952;-83
2021/09/02 10:59:02;;;;;;;6.30;5.77;;;23.70;93.30;;;;;;4955769;28;20469;-82
2021/09/02 11:01:31;;;;;;;5.10;4.70;;;24.00;92.80;;;;;;4936501;28;20458;-83
2021/09/02 11:04:04;;;;;;;6.67;6.07;;;24.30;92.40;;;;;;4939566;28;20509;-82
2021/09/02 11:06:54;;;;;;;5.47;5.10;;;24.70;92.10;;;;;;4955582;28;20848;-82
2021/09/02 11:09:30;;;;;;;5.77;5.13;;;25.30;92.10;;;;;;4954398;28;20546;-82
2021/09/02 11:11:57;;;;;;;6.17;5.63;;;25.80;90.60;;;;;;4939523;28;20457;-81
2021/09/02 11:14:24;;;;;;;5.50;5.00;;;26.30;86.60;;;;;;4951777;28;20459;-80
2021/09/02 11:16:51;;;;;;;5.73;5.33;;;26.90;87.00;;;;;;4941047;28;20465;-80
2021/09/02 11:19:32;;;;;;;5.50;5.10;;;27.50;84.50;;;;;;4954972;28;20467;-82
2021/09/02 11:22:07;;;;;;;4.60;4.30;;;28.00;81.00;;;;;;4954425;28;20748;-81
2021/09/02 11:24:38;;;;;;;5.10;4.70;;;28.40;80.10;;;;;;4954993;28;20439;-81
2021/09/02 11:27:05;;;;;;;5.97;5.57;;;28.80;75.60;;;;;;4967547;28;20479;-81
2021/09/02 11:29:32;;;;;;;5.80;5.40;;;29.30;76.00;;;;;;4934953;28;20464;-81
2021/09/02 11:32:04;;;;;;;5.67;5.17;;;29.80;72.50;;;;;;4946473;28;20461;-79
2021/09/02 11:34:31;;;;;;;4.50;4.10;;;30.10;68.00;;;;;;4958284;29;20467;-81
2021/09/02 11:37:00;;;;;;;5.23;4.70;;;30.40;65.90;;;;;;4956847;28;20453;-81
2021/09/02 11:39:30;;;;;;;5.00;4.50;;;30.70;62.90;;;;;;4957910;29;21069;-81
2021/09/02 11:42:05;;;;;;;4.97;4.47;;;30.70;63.60;;;;;;4958000;29;20783;-81
2021/09/02 11:44:35;;;;;;;5.83;4.93;;;31.10;64.20;;;;;;4957840;29;20458;-81
2021/09/02 11:47:04;;;;;;;5.57;5.10;;;31.30;62.80;;;;;;4958185;28;20515;-81
2021/09/02 11:49:31;;;;;;;5.33;4.93;;;31.60;60.90;;;;;;4957696;29;20451;-81
2021/09/02 11:52:00;;;;;;;5.83;5.33;;;32.00;59.00;;;;;;4957466;29;20831;-81
2021/09/02 11:54:31;;;;;;;6.00;4.23;;;32.20;56.80;;;;;;4959129;29;20981;-80
2021/09/02 11:56:58;;;;;;;5.17;4.67;;;32.40;57.50;;;;;;4959719;29;20464;-81
2021/09/02 11:59:27;;;;;;;4.67;4.37;;;32.50;55.90;;;;;;4959271;28;20467;-81
2021/09/02 12:01:56;;;;;;;4.50;3.90;;;32.80;54.80;;;;;;4950501;28;20455;-82
2021/09/02 12:07:35;;;;;;;4.93;4.57;;;33.10;53.20;;;;;;4852998;29;20468;-81
2021/09/02 12:10:04;;;;;;;4.60;4.00;;;33.50;53.90;;;;;;4950595;28;21939;-81
2021/09/02 12:12:33;;;;;;;5.67;4.70;;;33.60;53.00;;;;;;4941523;28;20474;-82
2021/09/02 12:15:00;;;;;;;4.60;4.27;;;34.00;51.70;;;;;;4955682;28;20485;-81
2021/09/02 12:17:36;;;;;;;5.40;5.00;;;34.10;51.60;;;;;;4955710;28;20978;-82
2021/09/02 12:20:17;;;;;;;4.23;3.93;;;34.10;49.50;;;;;;4956578;28;20452;-82
2021/09/02 12:23:01;;;;;;;4.40;4.00;;;34.30;49.20;;;;;;4951782;28;20563;-82
2021/09/02 12:25:34;;;;;;;4.90;4.40;;;34.20;49.00;;;;;;4944140;28;20452;-81
2021/09/02 12:28:30;;;;;;;4.40;4.00;;;34.40;50.00;;;;;;4955019;28;20487;-83
2021/09/02 12:31:03;;;;;;;4.23;3.93;;;34.40;48.70;;;;;;4953998;28;20500;-82
2021/09/02 12:33:31;;;;;;;4.53;4.20;;;34.60;48.20;;;;;;4948258;28;20489;-82
2021/09/02 12:36:17;;;;;;;4.60;4.20;;;34.60;48.30;;;;;;4935732;29;20491;-82
2021/09/02 12:38:56;;;;;;;5.20;4.80;;;34.90;48.70;;;;;;4949535;28;20444;-82
2021/09/02 12:41:25;;;;;;;4.60;4.20;;;34.70;45.70;;;;;;4941226;28;20500;-82
2021/09/02 12:44:04;;;;;;;4.20;3.90;;;34.40;45.90;;;;;;4942623;28;21303;-82
2021/09/02 12:46:49;;;;;;;4.70;4.30;;;34.20;46.60;;;;;;4958885;28;20467;-83
2021/09/02 12:49:16;;;;;;;4.90;4.50;;;34.20;47.30;;;;;;4959898;28;20974;-82
2021/09/02 12:51:56;;;;;;;5.30;4.90;;;34.50;46.40;;;;;;4959433;28;20499;-82
2021/09/02 12:54:25;;;;;;;4.77;4.43;;;34.30;45.00;;;;;;4939865;28;20715;-82
2021/09/02 12:56:56;;;;;;;4.93;4.53;;;34.50;47.20;;;;;;4939378;28;20457;-83
2021/09/02 12:59:27;;;;;;;4.70;4.30;;;34.90;45.90;;;;;;4949714;28;20867;-84
2021/09/02 13:01:56;;;;;;;5.33;4.83;;;35.50;45.90;;;;;;4946527;28;20533;-84
2021/09/02 13:04:23;;;;;;;4.53;4.23;;;36.10;44.70;;;;;;4968353;28;20460;-81
2021/09/02 13:06:49;;;;;;;5.30;4.90;;;36.50;44.70;;;;;;4956954;28;20445;-82
2021/09/02 13:09:18;;;;;;;5.20;4.80;;;36.70;43.80;;;;;;4958452;28;20453;-82
2021/09/02 13:11:44;;;;;;;5.00;4.60;;;37.20;42.70;;;;;;4959790;28;20492;-79
2021/09/02 13:14:12;;;;;;;5.17;4.87;;;36.50;41.40;;;;;;4958721;28;20475;-82
2021/09/02 13:16:43;;;;;;;4.57;4.17;;;35.70;42.40;;;;;;4957760;28;20449;-82
2021/09/02 13:19:09;;;;;;;5.90;4.43;;;35.60;42.70;;;;;;4942794;28;20963;-82
2021/09/02 13:21:36;;;;;;;4.67;4.30;;;35.90;42.60;;;;;;4941194;28;20457;-82
2021/09/02 13:24:03;;;;;;;3.90;3.60;;;36.30;42.40;;;;;;4953524;28;20477;-83
2021/09/02 13:26:30;;;;;;;5.50;5.00;;;36.80;42.80;;;;;;4968814;28;20467;-83
2021/09/02 13:28:56;;;;;;;4.90;4.60;;;37.40;42.30;;;;;;4948641;28;20481;-82
2021/09/02 13:31:24;;;;;;;4.97;4.57;;;37.70;41.20;;;;;;4939951;28;20489;-83
2021/09/02 13:33:51;;;;;;;5.83;5.40;;;37.80;40.30;;;;;;4939753;28;20489;-81
2021/09/02 13:36:20;;;;;;;5.67;5.17;;;37.90;40.40;;;;;;4953868;28;20982;-83
2021/09/02 13:38:47;;;;;;;4.70;4.40;;;38.30;40.40;;;;;;4944163;28;20507;-83
2021/09/02 13:41:14;;;;;;;5.20;4.80;;;38.40;40.00;;;;;;4953353;28;20450;-82
2021/09/02 13:43:40;;;;;;;4.97;4.47;;;38.30;38.50;;;;;;4949124;28;20568;-82
2021/09/02 13:46:07;;;;;;;4.20;3.80;;;37.90;38.20;;;;;;4944938;28;20458;-82
2021/09/02 13:48:38;;;;;;;4.90;4.50;;;38.00;38.70;;;;;;4954601;28;20455;-83
2021/09/02 13:51:04;;;;;;;4.67;4.37;;;38.00;39.10;;;;;;4942092;28;20500;-78
2021/09/02 13:53:31;;;;;;;6.80;5.30;;;37.80;39.50;;;;;;4941501;28;20968;-83
2021/09/02 13:56:21;;;;;;;5.30;4.80;;;38.10;38.90;;;;;;4948636;28;20460;-83
2021/09/02 13:58:56;;;;;;;5.60;5.20;;;38.40;39.30;;;;;;4936033;29;20461;-84
2021/09/02 14:01:31;;;;;;;5.20;4.80;;;38.50;37.70;;;;;;4936327;29;20457;-84
2021/09/02 14:04:08;;;;;;;5.33;4.83;;;38.40;37.90;;;;;;4936129;29;20861;-84
2021/09/02 14:06:49;;;;;;;4.03;3.73;;;38.30;38.30;;;;;;4942220;29;20468;-83
2021/09/02 20:55:18;;;;;;;8.43;7.63;;;16.80;99.90;;;;;;4959062;28;20498;-84
2021/09/02 20:57:45;;;;;;;8.43;7.53;;;16.80;99.90;;;;;;4961879;28;20449;-83
2021/09/02 21:00:13;;;;;;;10.60;8.53;;;16.70;99.90;;;;;;4961540;29;20454;-83
2021/09/02 21:02:41;;;;;;;8.00;7.30;;;16.70;99.90;;;;;;4963026;28;20470;-83
2021/09/02 21:05:10;;;;;;;8.23;7.53;;;16.60;99.90;;;;;;4965561;29;20452;-82
2021/09/02 21:07:41;;;;;;;9.10;8.20;;;16.50;99.90;;;;;;4965436;29;20485;-82
2021/09/02 21:10:10;;;;;;;7.50;6.80;;;16.50;99.90;;;;;;4963956;29;20442;-84
2021/09/02 21:12:41;;;;;;;8.13;7.53;;;16.40;99.90;;;;;;4963377;29;20501;-86
2021/09/02 21:15:09;;;;;;;8.37;7.43;;;16.40;99.90;;;;;;4964113;29;20449;-82